| time (UTC) | temp F | wind direction | speed MPH | gust MPH | rain 1hr in | rain 24hr in | rain mn in | humidity % | barometer mb |
| 20260901080054 | 0 | 0.0 | 0.0 | 0.00 | 0.00 | 0.00 | 1017.0 | ||
| 20260901074521 | 0 | 0.0 | 0.0 | 0.00 | 0.00 | 0.00 | 1017.1 | ||
| 20260901073020 | 0 | 0.0 | 0.0 | 0.00 | 0.00 | 0.00 | 1017.2 | ||
| 20260901071510 | 0 | 0.0 | 0.0 | 0.00 | 0.00 | 0.00 | 1017.3 | ||
| 20260901070005 | 0 | 0.0 | 0.0 | 0.00 | 0.00 | 0.00 | 1017.4 | ||
| 20260901064502 | 0 | 0.0 | 0.0 | 0.00 | 0.00 | 0.00 | 1017.4 | ||
| 20260901063102 | 0 | 0.0 | 0.0 | 0.00 | 0.00 | 0.00 | 1017.4 | ||
| 20260901061604 | 0 | 0.0 | 0.0 | 0.00 | 0.00 | 0.00 | 1017.5 | ||
| 20260901060050 | 0 | 0.0 | 0.0 | 0.00 | 0.00 | 0.00 | 1017.7 | ||
| 20260901054551 | 0 | 0.0 | 0.0 | 0.00 | 0.00 | 0.00 | 1017.5 | ||
| 20260901053041 | 0 | 0.0 | 0.0 | 0.00 | 0.00 | 0.00 | 1017.6 | ||
| 20260901051538 | 0 | 0.0 | 0.0 | 0.00 | 0.00 | 0.00 | 1017.5 | ||
| 20260901050032 | 0 | 0.0 | 0.0 | 0.00 | 0.00 | 0.00 | 1017.4 | ||
| 20260901044527 | 0 | 0.0 | 0.0 | 0.00 | 0.00 | 0.00 | 1017.5 | ||
| 20260901043031 | 68 | 0.0 | 1.0 | 0.00 | 0.00 | 0.00 | 83 | 1017.5 | |
| 20260901041522 | 68 | 0.0 | 1.0 | 0.00 | 0.00 | 0.00 | 84 | 1017.6 | |
| 20260901040020 | 68 | 0.0 | 1.0 | 0.00 | 0.00 | 0.00 | 85 | 1017.5 | |
| 20260901034523 | 68 | 0.0 | 1.0 | 0.00 | 0.00 | 0.00 | 85 | 1017.6 | |
| 20260901033022 | 68 | 0.0 | 0.0 | 0.00 | 0.00 | 0.00 | 84 | 1017.7 | |
| 20260901031519 | 68 | 0.0 | 1.0 | 0.00 | 0.00 | 0.00 | 84 | 1017.7 | |
| 20260901030018 | 68 | 0.0 | 0.0 | 0.00 | 0.00 | 0.00 | 83 | 1017.6 | |
| 20260901024518 | 68 | 0.0 | 0.0 | 0.00 | 0.00 | 0.00 | 82 | 1017.6 | |
| 20260901023018 | 68 | 0.0 | 2.0 | 0.00 | 0.00 | 0.00 | 82 | 1017.7 | |
| 20260901021517 | 67 | 0.0 | 0.0 | 0.00 | 0.00 | 0.00 | 81 | 1017.4 | |
| 20260901020017 | 68 | 0.0 | 0.0 | 0.00 | 0.00 | 0.00 | 81 | 1017.5 | |
| 20260901014516 | 68 | 0.0 | 0.0 | 0.00 | 0.00 | 0.00 | 79 | 1017.6 | |
| 20260901013017 | 69 | 0.0 | 0.0 | 0.00 | 0.00 | 0.00 | 77 | 1017.6 | |
| 20260901011524 | 69 | 0.0 | 0.0 | 0.00 | 0.00 | 0.00 | 77 | 1017.8 | |
| 20260901010017 | 70 | 0.0 | 0.0 | 0.00 | 0.00 | 0.00 | 77 | 1017.8 | |
| 20260901004514 | 70 | 0.0 | 0.0 | 0.00 | 0.00 | 0.00 | 77 | 1017.7 | |
| 20260901003014 | 70 | 0.0 | 0.0 | 0.00 | 0.00 | 0.00 | 76 | 1017.6 | |
| 20260901001513 | 70 | 0.0 | 0.0 | 0.00 | 0.00 | 0.00 | 75 | 1017.6 | |
| 20260901000018 | 70 | 0.0 | 0.0 | 0.00 | 0.00 | 0.00 | 74 | 1017.6 | |
| 20260831234513 | 71 | 0.0 | 0.0 | 0.00 | 0.00 | 0.00 | 74 | 1017.7 | |
| 20260831233012 | 71 | 0.0 | 0.0 | 0.00 | 0.00 | 0.00 | 74 | 1017.8 | |
| 20260831231523 | 72 | 0.0 | 0.0 | 0.00 | 0.00 | 0.00 | 73 | 1017.9 | |
| 20260831230010 | 72 | 0.0 | 0.0 | 0.00 | 0.00 | 0.00 | 71 | 1017.9 | |
| 20260831224533 | 73 | 0.0 | 0.0 | 0.00 | 0.00 | 0.00 | 69 | 1018.2 | |
| 20260831223010 | 74 | 0.0 | 0.0 | 0.00 | 0.00 | 0.00 | 68 | 1018.2 | |
| 20260831221510 | 74 | 0.0 | 0.0 | 0.00 | 0.00 | 0.00 | 66 | 1018.1 | |
| 20260831220009 | 75 | 0.0 | 0.0 | 0.00 | 0.00 | 0.00 | 65 | 1017.9 | |
| 20260831214509 | 75 | 0.0 | 0.0 | 0.00 | 0.00 | 0.00 | 64 | 1017.9 | |
| 20260831213008 | 75 | 0.0 | 2.0 | 0.00 | 0.00 | 0.00 | 63 | 1018.0 | |
| 20260831211507 | 76 | 0.0 | 2.0 | 0.00 | 0.00 | 0.00 | 62 | 1018.1 | |
| 20260831210015 | 76 | 0.0 | 1.0 | 0.00 | 0.00 | 0.00 | 62 | 1018.4 | |
| 20260831204506 | 77 | 0.0 | 2.0 | 0.00 | 0.00 | 0.00 | 60 | 1018.3 | |
| 20260831203008 | 78 | 0.0 | 3.0 | 0.00 | 0.00 | 0.00 | 59 | 1018.3 | |
| 20260831201504 | 78 | 0.0 | 3.0 | 0.00 | 0.00 | 0.00 | 58 | 1018.1 | |
| 20260831200002 | 79 | 0.0 | 2.0 | 0.00 | 0.00 | 0.00 | 55 | 1018.3 | |
| 20260831194503 | 80 | 0.0 | 3.0 | 0.00 | 0.00 | 0.00 | 52 | 1018.4 | |
| 20260831193102 | 80 | 0.0 | 4.0 | 0.00 | 0.00 | 0.00 | 53 | 1018.3 | |
| 20260831191557 | 80 | 0.0 | 2.0 | 0.00 | 0.00 | 0.00 | 51 | 1018.6 | |
| 20260831190104 | 81 | 0.0 | 1.0 | 0.00 | 0.00 | 0.00 | 49 | 1018.7 | |
| 20260831184555 | 80 | 0.0 | 2.0 | 0.00 | 0.00 | 0.00 | 53 | 1018.7 | |
| 20260831183056 | 80 | 0.0 | 3.0 | 0.00 | 0.00 | 0.00 | 50 | 1018.9 | |
| 20260831181555 | 81 | 0.0 | 3.0 | 0.00 | 0.00 | 0.00 | 47 | 1019.0 | |
| 20260831180054 | 81 | 0.0 | 1.0 | 0.00 | 0.00 | 0.00 | 47 | 1019.1 | |
| 20260831174554 | 82 | 0.0 | 2.0 | 0.00 | 0.00 | 0.00 | 44 | 1019.1 | |
| 20260831173053 | 82 | 0.0 | 2.0 | 0.00 | 0.00 | 0.00 | 45 | 1019.2 | |
| 20260831171551 | 81 | 0.0 | 2.0 | 0.00 | 0.00 | 0.00 | 48 | 1019.2 | |
| 20260831170050 | 79 | 1.0 | 4.0 | 0.00 | 0.00 | 0.00 | 46 | 1019.4 | |
| 20260831164550 | 82 | 0.0 | 2.0 | 0.00 | 0.00 | 0.00 | 45 | 1019.6 | |
| 20260831163046 | 80 | 0.0 | 3.0 | 0.00 | 0.00 | 0.00 | 48 | 1019.7 | |
| 20260831161544 | 78 | 0.0 | 2.0 | 0.00 | 0.00 | 0.00 | 50 | 1019.8 | |
| 20260831160045 | 78 | 0.0 | 3.0 | 0.00 | 0.00 | 0.00 | 51 | 1020.1 | |
| 20260831154610 | 77 | 2.0 | 4.0 | 0.00 | 0.00 | 0.00 | 49 | 1020.3 | |
| 20260831153041 | 78 | 0.0 | 0.0 | 0.00 | 0.00 | 0.00 | 51 | 1020.4 | |
| 20260831151549 | 76 | 0.0 | 1.0 | 0.00 | 0.00 | 0.00 | 56 | 1020.4 | |
| 20260831150035 | 73 | 1.0 | 3.0 | 0.00 | 0.00 | 0.00 | 58 | 1020.4 | |
| 20260831144535 | 75 | 0.0 | 1.0 | 0.00 | 0.00 | 0.00 | 54 | 1020.5 | |
| 20260831143032 | 73 | 0.0 | 2.0 | 0.00 | 0.00 | 0.00 | 59 | 1020.6 | |
| 20260831141531 | 73 | 0.0 | 2.0 | 0.00 | 0.00 | 0.00 | 61 | 1020.5 | |
| 20260831140028 | 72 | 0.0 | 1.0 | 0.00 | 0.00 | 0.00 | 62 | 1020.5 | |
| 20260831134525 | 71 | 1.0 | 3.0 | 0.00 | 0.00 | 0.00 | 62 | 1020.4 | |
| 20260831133023 | 69 | 0.0 | 4.0 | 0.00 | 0.00 | 0.00 | 64 | 1020.4 | |
| 20260831131522 | 69 | 0.0 | 0.0 | 0.00 | 0.00 | 0.00 | 69 | 1020.5 | |
| 20260831130016 | 68 | 0.0 | 0.0 | 0.00 | 0.00 | 0.00 | 74 | 1020.5 | |
| 20260831124524 | 65 | 0.0 | 0.0 | 0.00 | 0.00 | 0.00 | 78 | 1020.5 | |
| 20260831123008 | 63 | 0.0 | 0.0 | 0.00 | 0.00 | 0.00 | 83 | 1020.4 | |
| 20260831121503 | 0 | 0.0 | 0.0 | 0.00 | 0.00 | 0.00 | 1020.3 | ||
| 20260831120059 | 0 | 0.0 | 0.0 | 0.00 | 0.00 | 0.00 | 1020.0 | ||
| 20260831114555 | 0 | 0.0 | 0.0 | 0.00 | 0.00 | 0.00 | 1019.8 | ||
| 20260831113051 | 0 | 0.0 | 0.0 | 0.00 | 0.00 | 0.00 | 1019.9 | ||
| 20260831111547 | 0 | 0.0 | 0.0 | 0.00 | 0.00 | 0.00 | 1019.7 | ||
| 20260831110043 | 0 | 0.0 | 0.0 | 0.00 | 0.00 | 0.00 | 1019.6 | ||
| 20260831104538 | 0 | 0.0 | 0.0 | 0.00 | 0.00 | 0.00 | 1019.4 | ||
| 20260831103036 | 0 | 0.0 | 0.0 | 0.00 | 0.00 | 0.00 | 1019.3 | ||
| 20260831101529 | 0 | 0.0 | 0.0 | 0.00 | 0.00 | 0.00 | 1019.3 | ||
| 20260831100032 | 0 | 0.0 | 0.0 | 0.00 | 0.00 | 0.00 | 1019.1 | ||
| 20260831094524 | 0 | 0.0 | 0.0 | 0.00 | 0.00 | 0.00 | 1018.7 | ||
| 20260831093032 | 0 | 0.0 | 0.0 | 0.00 | 0.00 | 0.00 | 1018.6 | ||
| 20260831091511 | 0 | 0.0 | 0.0 | 0.00 | 0.00 | 0.00 | 1018.5 | ||
| 20260831090008 | 0 | 0.0 | 0.0 | 0.00 | 0.00 | 0.00 | 1018.4 | ||
| 20260831084505 | 0 | 0.0 | 0.0 | 0.00 | 0.00 | 0.00 | 1018.3 | ||
| 20260831083101 | 0 | 0.0 | 0.0 | 0.00 | 0.00 | 0.00 | 1018.2 | ||
| 20260831081558 | 0 | 0.0 | 0.0 | 0.00 | 0.00 | 0.00 | 1018.1 |